sensor_id;sensor_type;location;lat;lon;timestamp;temperature;humidity
72128;DHT22;60000;51.030;7.024;2022-10-26T00:02:07;11.73;88.65
72128;DHT22;60000;51.030;7.024;2022-10-26T00:04:35;11.77;88.69
72128;DHT22;60000;51.030;7.024;2022-10-26T00:07:00;11.81;88.61
72128;DHT22;60000;51.030;7.024;2022-10-26T00:09:25;11.84;88.63
72128;DHT22;60000;51.030;7.024;2022-10-26T00:11:51;11.89;88.40
72128;DHT22;60000;51.030;7.024;2022-10-26T00:14:17;11.98;88.37
72128;DHT22;60000;51.030;7.024;2022-10-26T00:16:43;12.04;88.16
72128;DHT22;60000;51.030;7.024;2022-10-26T00:19:08;12.08;87.74
72128;DHT22;60000;51.030;7.024;2022-10-26T00:21:33;12.09;87.51
72128;DHT22;60000;51.030;7.024;2022-10-26T00:23:59;12.09;87.32
72128;DHT22;60000;51.030;7.024;2022-10-26T00:26:24;12.16;87.42
72128;DHT22;60000;51.030;7.024;2022-10-26T00:28:52;12.18;87.22
72128;DHT22;60000;51.030;7.024;2022-10-26T00:31:19;12.22;87.16
72128;DHT22;60000;51.030;7.024;2022-10-26T00:33:44;12.21;86.92
72128;DHT22;60000;51.030;7.024;2022-10-26T00:36:10;12.21;86.86
72128;DHT22;60000;51.030;7.024;2022-10-26T00:38:37;12.19;86.81
72128;DHT22;60000;51.030;7.024;2022-10-26T00:41:03;12.21;86.87
72128;DHT22;60000;51.030;7.024;2022-10-26T00:45:56;12.24;86.70
72128;DHT22;60000;51.030;7.024;2022-10-26T00:48:33;12.22;86.58
72128;DHT22;60000;51.030;7.024;2022-10-26T00:51:02;12.25;86.72
72128;DHT22;60000;51.030;7.024;2022-10-26T00:53:29;12.25;86.67
72128;DHT22;60000;51.030;7.024;2022-10-26T00:55:55;12.28;86.70
72128;DHT22;60000;51.030;7.024;2022-10-26T00:58:21;12.30;86.68
72128;DHT22;60000;51.030;7.024;2022-10-26T01:00:47;12.32;86.49
72128;DHT22;60000;51.030;7.024;2022-10-26T01:03:13;12.35;86.41
72128;DHT22;60000;51.030;7.024;2022-10-26T01:05:43;12.35;86.33
72128;DHT22;60000;51.030;7.024;2022-10-26T01:08:09;12.36;86.29
72128;DHT22;60000;51.030;7.024;2022-10-26T01:10:37;12.36;86.35
72128;DHT22;60000;51.030;7.024;2022-10-26T01:13:03;12.37;86.35
72128;DHT22;60000;51.030;7.024;2022-10-26T01:18:37;12.42;86.15
72128;DHT22;60000;51.030;7.024;2022-10-26T01:31:38;12.52;85.87
72128;DHT22;60000;51.030;7.024;2022-10-26T01:34:20;12.55;85.80
72128;DHT22;60000;51.030;7.024;2022-10-26T01:36:52;12.59;85.78
72128;DHT22;60000;51.030;7.024;2022-10-26T01:39:26;12.59;85.72
72128;DHT22;60000;51.030;7.024;2022-10-26T01:41:57;12.63;85.74
72128;DHT22;60000;51.030;7.024;2022-10-26T01:44:28;12.64;85.54
72128;DHT22;60000;51.030;7.024;2022-10-26T01:46:57;12.72;85.45
72128;DHT22;60000;51.030;7.024;2022-10-26T01:49:29;12.76;85.31
72128;DHT22;60000;51.030;7.024;2022-10-26T01:51:57;12.80;85.08
72128;DHT22;60000;51.030;7.024;2022-10-26T01:54:22;12.84;84.95
72128;DHT22;60000;51.030;7.024;2022-10-26T01:56:51;12.90;84.79
72128;DHT22;60000;51.030;7.024;2022-10-26T01:59:32;12.91;84.56
72128;DHT22;60000;51.030;7.024;2022-10-26T02:02:26;12.94;84.43
72128;DHT22;60000;51.030;7.024;2022-10-26T02:10:59;13.05;84.19
72128;DHT22;60000;51.030;7.024;2022-10-26T02:16:07;13.05;84.06
72128;DHT22;60000;51.030;7.024;2022-10-26T02:18:45;13.08;84.14
72128;DHT22;60000;51.030;7.024;2022-10-26T02:21:18;13.11;84.04
72128;DHT22;60000;51.030;7.024;2022-10-26T02:23:46;13.10;83.99
72128;DHT22;60000;51.030;7.024;2022-10-26T02:26:15;13.15;83.97
72128;DHT22;60000;51.030;7.024;2022-10-26T02:28:44;13.18;83.85
72128;DHT22;60000;51.030;7.024;2022-10-26T02:31:12;13.18;83.94
72128;DHT22;60000;51.030;7.024;2022-10-26T02:33:40;13.22;83.88
72128;DHT22;60000;51.030;7.024;2022-10-26T02:36:10;13.25;83.81
72128;DHT22;60000;51.030;7.024;2022-10-26T02:38:37;13.25;83.70
72128;DHT22;60000;51.030;7.024;2022-10-26T02:41:04;13.29;83.55
72128;DHT22;60000;51.030;7.024;2022-10-26T02:43:35;13.31;83.54
72128;DHT22;60000;51.030;7.024;2022-10-26T02:46:06;13.31;83.57
72128;DHT22;60000;51.030;7.024;2022-10-26T02:48:33;13.34;83.44
72128;DHT22;60000;51.030;7.024;2022-10-26T02:51:03;13.32;83.46
72128;DHT22;60000;51.030;7.024;2022-10-26T02:53:36;13.36;83.25
72128;DHT22;60000;51.030;7.024;2022-10-26T02:56:09;13.39;83.35
72128;DHT22;60000;51.030;7.024;2022-10-26T02:58:43;13.39;83.31
72128;DHT22;60000;51.030;7.024;2022-10-26T03:01:10;13.41;83.32
72128;DHT22;60000;51.030;7.024;2022-10-26T03:03:35;13.42;83.39
72128;DHT22;60000;51.030;7.024;2022-10-26T03:06:00;13.44;83.38
72128;DHT22;60000;51.030;7.024;2022-10-26T03:08:26;13.44;83.22
72128;DHT22;60000;51.030;7.024;2022-10-26T03:10:51;13.49;83.14
72128;DHT22;60000;51.030;7.024;2022-10-26T03:13:16;13.53;83.12
72128;DHT22;60000;51.030;7.024;2022-10-26T03:15:42;13.55;82.97
72128;DHT22;60000;51.030;7.024;2022-10-26T03:18:07;13.61;82.91
72128;DHT22;60000;51.030;7.024;2022-10-26T03:20:33;13.62;82.83
72128;DHT22;60000;51.030;7.024;2022-10-26T03:22:58;13.65;82.66
72128;DHT22;60000;51.030;7.024;2022-10-26T03:25:24;13.69;82.68
72128;DHT22;60000;51.030;7.024;2022-10-26T03:28:01;13.70;82.57
72128;DHT22;60000;51.030;7.024;2022-10-26T03:30:27;13.75;82.52
72128;DHT22;60000;51.030;7.024;2022-10-26T03:32:53;13.76;82.34
72128;DHT22;60000;51.030;7.024;2022-10-26T03:35:18;13.82;82.24
72128;DHT22;60000;51.030;7.024;2022-10-26T03:37:44;13.84;82.09
72128;DHT22;60000;51.030;7.024;2022-10-26T03:40:10;13.84;82.14
72128;DHT22;60000;51.030;7.024;2022-10-26T03:42:36;13.89;82.02
72128;DHT22;60000;51.030;7.024;2022-10-26T03:45:02;13.89;81.99
72128;DHT22;60000;51.030;7.024;2022-10-26T03:47:27;13.90;81.89
72128;DHT22;60000;51.030;7.024;2022-10-26T03:49:53;13.91;81.95
72128;DHT22;60000;51.030;7.024;2022-10-26T03:52:18;13.89;82.05
72128;DHT22;60000;51.030;7.024;2022-10-26T03:54:43;13.89;82.10
72128;DHT22;60000;51.030;7.024;2022-10-26T03:57:08;13.93;82.05
72128;DHT22;60000;51.030;7.024;2022-10-26T03:59:34;13.94;82.00
72128;DHT22;60000;51.030;7.024;2022-10-26T04:01:59;13.96;82.03
72128;DHT22;60000;51.030;7.024;2022-10-26T04:04:24;14.00;81.94
72128;DHT22;60000;51.030;7.024;2022-10-26T04:06:51;13.99;81.85
72128;DHT22;60000;51.030;7.024;2022-10-26T04:09:16;14.00;81.88
72128;DHT22;60000;51.030;7.024;2022-10-26T04:11:41;14.03;81.88
72128;DHT22;60000;51.030;7.024;2022-10-26T04:14:07;14.07;81.66
72128;DHT22;60000;51.030;7.024;2022-10-26T04:16:32;14.10;81.60
72128;DHT22;60000;51.030;7.024;2022-10-26T04:18:57;14.10;81.68
72128;DHT22;60000;51.030;7.024;2022-10-26T04:21:23;14.10;81.65
72128;DHT22;60000;51.030;7.024;2022-10-26T04:23:48;14.12;81.57
72128;DHT22;60000;51.030;7.024;2022-10-26T04:26:13;14.09;81.59
72128;DHT22;60000;51.030;7.024;2022-10-26T04:28:38;14.12;81.78
72128;DHT22;60000;51.030;7.024;2022-10-26T04:31:04;14.13;81.69
72128;DHT22;60000;51.030;7.024;2022-10-26T04:33:29;14.12;81.80
72128;DHT22;60000;51.030;7.024;2022-10-26T04:36:02;14.14;81.80
72128;DHT22;60000;51.030;7.024;2022-10-26T04:38:27;14.16;81.75
72128;DHT22;60000;51.030;7.024;2022-10-26T04:40:52;14.14;81.91
72128;DHT22;60000;51.030;7.024;2022-10-26T04:43:18;14.13;81.92
72128;DHT22;60000;51.030;7.024;2022-10-26T04:45:43;14.13;81.95
72128;DHT22;60000;51.030;7.024;2022-10-26T04:48:10;14.10;81.98
72128;DHT22;60000;51.030;7.024;2022-10-26T04:50:36;14.07;82.24
72128;DHT22;60000;51.030;7.024;2022-10-26T04:53:03;14.07;82.20
72128;DHT22;60000;51.030;7.024;2022-10-26T04:55:28;14.04;82.17
72128;DHT22;60000;51.030;7.024;2022-10-26T04:57:53;14.03;82.40
72128;DHT22;60000;51.030;7.024;2022-10-26T05:00:19;14.02;82.48
72128;DHT22;60000;51.030;7.024;2022-10-26T05:02:44;14.00;82.53
72128;DHT22;60000;51.030;7.024;2022-10-26T05:05:10;14.02;82.62
72128;DHT22;60000;51.030;7.024;2022-10-26T05:07:35;13.97;82.68
72128;DHT22;60000;51.030;7.024;2022-10-26T05:10:00;13.94;82.66
72128;DHT22;60000;51.030;7.024;2022-10-26T05:12:25;13.94;82.88
72128;DHT22;60000;51.030;7.024;2022-10-26T05:14:51;13.93;82.80
72128;DHT22;60000;51.030;7.024;2022-10-26T05:17:16;13.94;82.78
72128;DHT22;60000;51.030;7.024;2022-10-26T05:19:41;13.94;82.75
72128;DHT22;60000;51.030;7.024;2022-10-26T05:22:07;13.96;82.77
72128;DHT22;60000;51.030;7.024;2022-10-26T05:24:32;13.97;82.54
72128;DHT22;60000;51.030;7.024;2022-10-26T05:26:58;13.99;82.47
72128;DHT22;60000;51.030;7.024;2022-10-26T05:29:23;13.99;82.35
72128;DHT22;60000;51.030;7.024;2022-10-26T05:31:48;14.00;82.15
72128;DHT22;60000;51.030;7.024;2022-10-26T05:34:14;14.03;82.02
72128;DHT22;60000;51.030;7.024;2022-10-26T05:36:39;14.04;81.82
72128;DHT22;60000;51.030;7.024;2022-10-26T05:39:04;14.04;81.63
72128;DHT22;60000;51.030;7.024;2022-10-26T05:41:30;14.09;81.51
72128;DHT22;60000;51.030;7.024;2022-10-26T05:43:55;14.12;81.35
72128;DHT22;60000;51.030;7.024;2022-10-26T05:46:20;14.17;81.20
72128;DHT22;60000;51.030;7.024;2022-10-26T05:48:46;14.16;81.08
72128;DHT22;60000;51.030;7.024;2022-10-26T05:51:11;14.17;80.93
72128;DHT22;60000;51.030;7.024;2022-10-26T05:53:37;14.17;80.89
72128;DHT22;60000;51.030;7.024;2022-10-26T05:56:07;14.23;80.67
72128;DHT22;60000;51.030;7.024;2022-10-26T05:58:38;14.23;80.54
72128;DHT22;60000;51.030;7.024;2022-10-26T06:01:27;14.24;80.57
72128;DHT22;60000;51.030;7.024;2022-10-26T06:06:23;14.23;80.70
72128;DHT22;60000;51.030;7.024;2022-10-26T06:08:49;14.21;80.82
72128;DHT22;60000;51.030;7.024;2022-10-26T06:11:15;14.17;80.78
72128;DHT22;60000;51.030;7.024;2022-10-26T06:13:40;14.16;80.96
72128;DHT22;60000;51.030;7.024;2022-10-26T06:24:14;14.10;81.75
72128;DHT22;60000;51.030;7.024;2022-10-26T06:26:48;14.09;81.95
72128;DHT22;60000;51.030;7.024;2022-10-26T06:29:31;14.07;82.11
72128;DHT22;60000;51.030;7.024;2022-10-26T06:32:01;14.10;82.26
72128;DHT22;60000;51.030;7.024;2022-10-26T06:34:32;14.12;82.24
72128;DHT22;60000;51.030;7.024;2022-10-26T06:36:59;14.10;82.16
72128;DHT22;60000;51.030;7.024;2022-10-26T06:39:27;14.16;82.04
72128;DHT22;60000;51.030;7.024;2022-10-26T06:41:55;14.16;82.04
72128;DHT22;60000;51.030;7.024;2022-10-26T06:44:22;14.16;82.09
72128;DHT22;60000;51.030;7.024;2022-10-26T06:47:05;14.18;82.08
72128;DHT22;60000;51.030;7.024;2022-10-26T06:49:35;14.23;81.99
72128;DHT22;60000;51.030;7.024;2022-10-26T06:52:09;14.24;81.94
72128;DHT22;60000;51.030;7.024;2022-10-26T06:57:09;14.31;82.03
72128;DHT22;60000;51.030;7.024;2022-10-26T06:59:38;14.30;81.96
72128;DHT22;60000;51.030;7.024;2022-10-26T07:02:08;14.34;81.88
72128;DHT22;60000;51.030;7.024;2022-10-26T07:04:34;14.38;81.78
72128;DHT22;60000;51.030;7.024;2022-10-26T07:06:59;14.44;81.72
72128;DHT22;60000;51.030;7.024;2022-10-26T07:09:24;14.46;81.68
72128;DHT22;60000;51.030;7.024;2022-10-26T07:11:49;14.52;81.62
72128;DHT22;60000;51.030;7.024;2022-10-26T07:14:15;14.51;81.68
72128;DHT22;60000;51.030;7.024;2022-10-26T07:16:40;14.49;81.82
72128;DHT22;60000;51.030;7.024;2022-10-26T07:19:05;14.48;81.91
72128;DHT22;60000;51.030;7.024;2022-10-26T07:21:31;14.51;81.96
72128;DHT22;60000;51.030;7.024;2022-10-26T07:23:56;14.51;81.98
72128;DHT22;60000;51.030;7.024;2022-10-26T07:26:22;14.52;81.97
72128;DHT22;60000;51.030;7.024;2022-10-26T07:28:49;14.58;81.87
72128;DHT22;60000;51.030;7.024;2022-10-26T07:31:15;14.65;81.72
72128;DHT22;60000;51.030;7.024;2022-10-26T07:33:40;14.64;81.75
72128;DHT22;60000;51.030;7.024;2022-10-26T07:36:07;14.62;81.86
72128;DHT22;60000;51.030;7.024;2022-10-26T07:38:35;14.64;81.92
72128;DHT22;60000;51.030;7.024;2022-10-26T07:41:01;14.65;81.88
72128;DHT22;60000;51.030;7.024;2022-10-26T07:43:26;14.69;81.86
72128;DHT22;60000;51.030;7.024;2022-10-26T07:45:51;14.78;81.54
72128;DHT22;60000;51.030;7.024;2022-10-26T07:48:17;14.79;81.39
72128;DHT22;60000;51.030;7.024;2022-10-26T07:50:42;14.79;81.32
72128;DHT22;60000;51.030;7.024;2022-10-26T07:53:07;14.81;81.31
72128;DHT22;60000;51.030;7.024;2022-10-26T07:55:33;14.82;81.05
72128;DHT22;60000;51.030;7.024;2022-10-26T07:57:58;14.85;81.09
72128;DHT22;60000;51.030;7.024;2022-10-26T08:00:23;14.96;81.32
72128;DHT22;60000;51.030;7.024;2022-10-26T08:02:50;14.99;80.62
72128;DHT22;60000;51.030;7.024;2022-10-26T08:05:15;15.02;80.34
72128;DHT22;60000;51.030;7.024;2022-10-26T08:07:42;14.98;80.30
72128;DHT22;60000;51.030;7.024;2022-10-26T08:10:09;15.02;80.50
72128;DHT22;60000;51.030;7.024;2022-10-26T08:12:35;15.24;80.07
72128;DHT22;60000;51.030;7.024;2022-10-26T08:15:00;15.44;79.11
72128;DHT22;60000;51.030;7.024;2022-10-26T08:17:27;15.74;79.62
72128;DHT22;60000;51.030;7.024;2022-10-26T08:19:53;15.94;77.63
72128;DHT22;60000;51.030;7.024;2022-10-26T08:22:18;16.09;76.64
72128;DHT22;60000;51.030;7.024;2022-10-26T08:24:43;16.28;76.27
72128;DHT22;60000;51.030;7.024;2022-10-26T08:27:11;16.42;75.33
72128;DHT22;60000;51.030;7.024;2022-10-26T08:29:36;16.61;75.13
72128;DHT22;60000;51.030;7.024;2022-10-26T08:32:02;16.77;74.68
72128;DHT22;60000;51.030;7.024;2022-10-26T08:34:27;16.92;74.11
72128;DHT22;60000;51.030;7.024;2022-10-26T08:36:52;17.04;73.46
72128;DHT22;60000;51.030;7.024;2022-10-26T08:39:18;17.11;73.10
72128;DHT22;60000;51.030;7.024;2022-10-26T08:41:48;17.22;72.48
72128;DHT22;60000;51.030;7.024;2022-10-26T08:44:35;17.43;73.57
72128;DHT22;60000;51.030;7.024;2022-10-26T08:47:13;17.75;73.15
72128;DHT22;60000;51.030;7.024;2022-10-26T08:49:50;17.76;71.02
72128;DHT22;60000;51.030;7.024;2022-10-26T08:52:23;17.66;71.43
72128;DHT22;60000;51.030;7.024;2022-10-26T08:54:51;17.56;71.51
72128;DHT22;60000;51.030;7.024;2022-10-26T08:57:24;17.42;71.28
72128;DHT22;60000;51.030;7.024;2022-10-26T08:59:58;17.27;72.13
72128;DHT22;60000;51.030;7.024;2022-10-26T09:02:24;17.17;72.52
72128;DHT22;60000;51.030;7.024;2022-10-26T09:04:51;17.11;72.39
72128;DHT22;60000;51.030;7.024;2022-10-26T09:10:22;17.00;73.25
72128;DHT22;60000;51.030;7.024;2022-10-26T09:13:04;16.92;73.56
72128;DHT22;60000;51.030;7.024;2022-10-26T09:18:24;16.87;73.73
72128;DHT22;60000;51.030;7.024;2022-10-26T09:26:34;16.90;74.66
72128;DHT22;60000;51.030;7.024;2022-10-26T09:29:05;16.95;74.50
72128;DHT22;60000;51.030;7.024;2022-10-26T09:31:38;17.24;74.79
72128;DHT22;60000;51.030;7.024;2022-10-26T09:34:05;17.55;74.11
72128;DHT22;60000;51.030;7.024;2022-10-26T09:36:32;17.86;73.53
72128;DHT22;60000;51.030;7.024;2022-10-26T09:41:42;18.24;71.18
72128;DHT22;60000;51.030;7.024;2022-10-26T09:44:17;18.21;70.37
72128;DHT22;60000;51.030;7.024;2022-10-26T09:47:28;18.47;70.47
72128;DHT22;60000;51.030;7.024;2022-10-26T09:49:59;18.72;69.30
72128;DHT22;60000;51.030;7.024;2022-10-26T09:52:26;18.86;69.07
72128;DHT22;60000;51.030;7.024;2022-10-26T09:54:51;18.99;68.48
72128;DHT22;60000;51.030;7.024;2022-10-26T09:57:18;19.12;68.41
72128;DHT22;60000;51.030;7.024;2022-10-26T09:59:45;19.24;67.53
72128;DHT22;60000;51.030;7.024;2022-10-26T10:02:39;19.46;67.80
72128;DHT22;60000;51.030;7.024;2022-10-26T10:07:50;19.64;64.98
72128;DHT22;60000;51.030;7.024;2022-10-26T10:10:18;19.73;65.75
72128;DHT22;60000;51.030;7.024;2022-10-26T10:12:45;19.74;65.62
72128;DHT22;60000;51.030;7.024;2022-10-26T10:15:22;19.73;65.32
72128;DHT22;60000;51.030;7.024;2022-10-26T10:17:52;19.86;66.31
72128;DHT22;60000;51.030;7.024;2022-10-26T10:20:23;20.08;65.34
72128;DHT22;60000;51.030;7.024;2022-10-26T10:23:12;20.21;64.62
72128;DHT22;60000;51.030;7.024;2022-10-26T10:25:57;20.28;64.26
72128;DHT22;60000;51.030;7.024;2022-10-26T10:28:25;20.36;64.59
72128;DHT22;60000;51.030;7.024;2022-10-26T10:30:56;20.42;64.77
72128;DHT22;60000;51.030;7.024;2022-10-26T10:33:40;20.56;64.60
72128;DHT22;60000;51.030;7.024;2022-10-26T10:36:18;20.76;63.36
72128;DHT22;60000;51.030;7.024;2022-10-26T10:38:45;20.73;62.57
72128;DHT22;60000;51.030;7.024;2022-10-26T10:41:25;20.70;63.37
72128;DHT22;60000;51.030;7.024;2022-10-26T10:44:38;20.79;63.08
72128;DHT22;60000;51.030;7.024;2022-10-26T10:46:39;20.93;63.23
72128;DHT22;60000;51.030;7.024;2022-10-26T10:49:06;21.00;63.38
72128;DHT22;60000;51.030;7.024;2022-10-26T10:51:40;20.98;62.84
72128;DHT22;60000;51.030;7.024;2022-10-26T10:54:19;21.05;62.67
72128;DHT22;60000;51.030;7.024;2022-10-26T10:56:50;20.95;62.51
72128;DHT22;60000;51.030;7.024;2022-10-26T10:59:23;20.94;62.93
72128;DHT22;60000;51.030;7.024;2022-10-26T11:02:02;21.03;62.92
72128;DHT22;60000;51.030;7.024;2022-10-26T11:07:06;21.04;63.16
72128;DHT22;60000;51.030;7.024;2022-10-26T11:09:36;21.03;62.88
72128;DHT22;60000;51.030;7.024;2022-10-26T11:12:09;21.00;63.47
72128;DHT22;60000;51.030;7.024;2022-10-26T11:14:41;21.07;63.99
72128;DHT22;60000;51.030;7.024;2022-10-26T11:17:25;21.04;63.47
72128;DHT22;60000;51.030;7.024;2022-10-26T11:25:43;21.05;63.21
72128;DHT22;60000;51.030;7.024;2022-10-26T11:28:14;21.03;63.57
72128;DHT22;60000;51.030;7.024;2022-10-26T11:30:46;21.10;64.30
72128;DHT22;60000;51.030;7.024;2022-10-26T11:33:28;21.11;64.63
72128;DHT22;60000;51.030;7.024;2022-10-26T11:36:06;21.11;64.15
72128;DHT22;60000;51.030;7.024;2022-10-26T11:41:20;21.25;64.01
72128;DHT22;60000;51.030;7.024;2022-10-26T11:43:49;21.35;64.12
72128;DHT22;60000;51.030;7.024;2022-10-26T11:46:21;21.37;64.12
72128;DHT22;60000;51.030;7.024;2022-10-26T11:48:50;21.37;63.97
72128;DHT22;60000;51.030;7.024;2022-10-26T11:51:36;21.42;64.09
72128;DHT22;60000;51.030;7.024;2022-10-26T11:54:23;21.42;63.91
72128;DHT22;60000;51.030;7.024;2022-10-26T11:56:52;21.45;63.96
72128;DHT22;60000;51.030;7.024;2022-10-26T11:59:21;21.46;61.65
72128;DHT22;60000;51.030;7.024;2022-10-26T12:01:50;21.43;60.94
72128;DHT22;60000;51.030;7.024;2022-10-26T12:04:18;21.43;61.61
72128;DHT22;60000;51.030;7.024;2022-10-26T12:06:46;21.45;61.82
72128;DHT22;60000;51.030;7.024;2022-10-26T12:09:16;21.45;61.93
72128;DHT22;60000;51.030;7.024;2022-10-26T12:12:06;21.48;62.34
72128;DHT22;60000;51.030;7.024;2022-10-26T12:15:34;21.49;60.84
72128;DHT22;60000;51.030;7.024;2022-10-26T12:17:51;21.49;61.60
72128;DHT22;60000;51.030;7.024;2022-10-26T12:20:28;21.48;61.78
72128;DHT22;60000;51.030;7.024;2022-10-26T12:22:58;21.48;61.79
72128;DHT22;60000;51.030;7.024;2022-10-26T12:25:24;21.48;61.03
72128;DHT22;60000;51.030;7.024;2022-10-26T12:27:53;21.49;61.38
72128;DHT22;60000;51.030;7.024;2022-10-26T12:30:24;21.51;61.51
72128;DHT22;60000;51.030;7.024;2022-10-26T12:32:56;21.48;61.07
72128;DHT22;60000;51.030;7.024;2022-10-26T12:35:34;21.46;60.85
72128;DHT22;60000;51.030;7.024;2022-10-26T12:38:20;21.43;61.47
72128;DHT22;60000;51.030;7.024;2022-10-26T12:40:47;21.46;61.38
72128;DHT22;60000;51.030;7.024;2022-10-26T12:45:38;21.45;61.52
72128;DHT22;60000;51.030;7.024;2022-10-26T12:48:10;21.45;61.61
72128;DHT22;60000;51.030;7.024;2022-10-26T12:50:44;21.45;61.38
72128;DHT22;60000;51.030;7.024;2022-10-26T12:53:11;21.48;61.17
72128;DHT22;60000;51.030;7.024;2022-10-26T12:55:53;21.52;61.48
72128;DHT22;60000;51.030;7.024;2022-10-26T13:03:31;21.56;61.73
72128;DHT22;60000;51.030;7.024;2022-10-26T13:08:48;21.55;61.10
72128;DHT22;60000;51.030;7.024;2022-10-26T13:11:22;21.53;61.61
72128;DHT22;60000;51.030;7.024;2022-10-26T13:13:54;21.55;61.64
72128;DHT22;60000;51.030;7.024;2022-10-26T13:16:20;21.55;61.75
72128;DHT22;60000;51.030;7.024;2022-10-26T13:18:46;21.52;61.75
72128;DHT22;60000;51.030;7.024;2022-10-26T13:21:16;21.56;61.08
72128;DHT22;60000;51.030;7.024;2022-10-26T13:23:45;21.58;60.72
72128;DHT22;60000;51.030;7.024;2022-10-26T13:26:16;21.59;59.80
72128;DHT22;60000;51.030;7.024;2022-10-26T13:28:43;21.55;58.58
72128;DHT22;60000;51.030;7.024;2022-10-26T13:33:55;21.53;58.11
72128;DHT22;60000;51.030;7.024;2022-10-26T13:36:41;21.49;56.50
72128;DHT22;60000;51.030;7.024;2022-10-26T13:39:16;21.43;56.45
72128;DHT22;60000;51.030;7.024;2022-10-26T13:41:44;21.41;56.49
72128;DHT22;60000;51.030;7.024;2022-10-26T13:44:20;21.35;55.83
72128;DHT22;60000;51.030;7.024;2022-10-26T13:46:51;21.37;56.28
72128;DHT22;60000;51.030;7.024;2022-10-26T13:49:22;21.35;55.40
72128;DHT22;60000;51.030;7.024;2022-10-26T13:51:50;21.34;56.05
72128;DHT22;60000;51.030;7.024;2022-10-26T13:54:38;21.31;56.89
72128;DHT22;60000;51.030;7.024;2022-10-26T13:59:37;21.28;56.77
72128;DHT22;60000;51.030;7.024;2022-10-26T14:04:31;21.27;57.20
72128;DHT22;60000;51.030;7.024;2022-10-26T14:06:57;21.24;57.79
72128;DHT22;60000;51.030;7.024;2022-10-26T14:09:22;21.25;58.27
72128;DHT22;60000;51.030;7.024;2022-10-26T14:11:48;21.24;58.13
72128;DHT22;60000;51.030;7.024;2022-10-26T14:14:35;21.25;58.48
72128;DHT22;60000;51.030;7.024;2022-10-26T14:17:01;21.24;57.84
72128;DHT22;60000;51.030;7.024;2022-10-26T14:19:33;21.25;57.61
72128;DHT22;60000;51.030;7.024;2022-10-26T14:21:59;21.28;55.93
72128;DHT22;60000;51.030;7.024;2022-10-26T14:24:36;21.25;56.44
72128;DHT22;60000;51.030;7.024;2022-10-26T14:27:14;21.18;56.70
72128;DHT22;60000;51.030;7.024;2022-10-26T14:29:39;21.18;56.72
72128;DHT22;60000;51.030;7.024;2022-10-26T14:32:30;21.18;56.68
72128;DHT22;60000;51.030;7.024;2022-10-26T14:34:57;21.10;57.15
72128;DHT22;60000;51.030;7.024;2022-10-26T14:37:50;21.03;57.59
72128;DHT22;60000;51.030;7.024;2022-10-26T14:40:18;20.98;57.64
72128;DHT22;60000;51.030;7.024;2022-10-26T14:42:47;20.91;58.23
72128;DHT22;60000;51.030;7.024;2022-10-26T14:45:27;20.85;58.89
72128;DHT22;60000;51.030;7.024;2022-10-26T14:47:55;20.81;58.56
72128;DHT22;60000;51.030;7.024;2022-10-26T14:50:22;20.77;58.75
72128;DHT22;60000;51.030;7.024;2022-10-26T14:52:50;20.76;58.72
72128;DHT22;60000;51.030;7.024;2022-10-26T14:55:17;20.69;59.02
72128;DHT22;60000;51.030;7.024;2022-10-26T14:57:44;20.62;59.23
72128;DHT22;60000;51.030;7.024;2022-10-26T15:00:18;20.57;59.34
72128;DHT22;60000;51.030;7.024;2022-10-26T15:02:46;20.52;59.42
72128;DHT22;60000;51.030;7.024;2022-10-26T15:05:29;20.45;59.53
72128;DHT22;60000;51.030;7.024;2022-10-26T15:07:58;20.36;59.83
72128;DHT22;60000;51.030;7.024;2022-10-26T15:10:44;20.29;59.93
72128;DHT22;60000;51.030;7.024;2022-10-26T15:13:30;20.21;60.03
72128;DHT22;60000;51.030;7.024;2022-10-26T15:16:14;20.14;60.14
72128;DHT22;60000;51.030;7.024;2022-10-26T15:18:41;20.11;59.89
72128;DHT22;60000;51.030;7.024;2022-10-26T15:21:21;20.06;59.46
72128;DHT22;60000;51.030;7.024;2022-10-26T15:23:47;20.05;59.47
72128;DHT22;60000;51.030;7.024;2022-10-26T15:26:12;19.99;59.59
72128;DHT22;60000;51.030;7.024;2022-10-26T15:28:39;19.92;59.67
72128;DHT22;60000;51.030;7.024;2022-10-26T15:33:43;19.82;60.23
72128;DHT22;60000;51.030;7.024;2022-10-26T15:36:29;19.73;60.21
72128;DHT22;60000;51.030;7.024;2022-10-26T15:38:57;19.70;60.22
72128;DHT22;60000;51.030;7.024;2022-10-26T15:41:26;19.61;60.60
72128;DHT22;60000;51.030;7.024;2022-10-26T15:43:53;19.55;60.69
72128;DHT22;60000;51.030;7.024;2022-10-26T15:46:23;19.50;60.70
72128;DHT22;60000;51.030;7.024;2022-10-26T15:48:58;19.44;61.01
72128;DHT22;60000;51.030;7.024;2022-10-26T15:51:24;19.34;61.53
72128;DHT22;60000;51.030;7.024;2022-10-26T15:53:49;19.26;61.77
72128;DHT22;60000;51.030;7.024;2022-10-26T15:56:17;19.19;61.94
72128;DHT22;60000;51.030;7.024;2022-10-26T15:58:43;19.09;62.24
72128;DHT22;60000;51.030;7.024;2022-10-26T16:01:14;18.96;62.54
72128;DHT22;60000;51.030;7.024;2022-10-26T16:03:39;18.89;62.90
72128;DHT22;60000;51.030;7.024;2022-10-26T16:06:11;18.81;63.00
72128;DHT22;60000;51.030;7.024;2022-10-26T16:08:38;18.71;63.30
72128;DHT22;60000;51.030;7.024;2022-10-26T16:11:03;18.55;63.64
72128;DHT22;60000;51.030;7.024;2022-10-26T16:13:28;18.41;64.20
72128;DHT22;60000;51.030;7.024;2022-10-26T16:15:55;18.28;64.95
72128;DHT22;60000;51.030;7.024;2022-10-26T16:18:21;18.17;65.37
72128;DHT22;60000;51.030;7.024;2022-10-26T16:20:46;18.07;65.82
72128;DHT22;60000;51.030;7.024;2022-10-26T16:23:11;17.93;66.06
72128;DHT22;60000;51.030;7.024;2022-10-26T16:25:42;17.80;66.80
72128;DHT22;60000;51.030;7.024;2022-10-26T16:28:10;17.66;67.23
72128;DHT22;60000;51.030;7.024;2022-10-26T16:30:35;17.53;67.91
72128;DHT22;60000;51.030;7.024;2022-10-26T16:33:01;17.40;68.16
72128;DHT22;60000;51.030;7.024;2022-10-26T16:35:26;17.29;68.69
72128;DHT22;60000;51.030;7.024;2022-10-26T16:37:52;17.18;69.12
72128;DHT22;60000;51.030;7.024;2022-10-26T16:40:17;17.07;69.56
72128;DHT22;60000;51.030;7.024;2022-10-26T16:42:42;16.95;70.02
72128;DHT22;60000;51.030;7.024;2022-10-26T16:45:10;16.85;70.52
72128;DHT22;60000;51.030;7.024;2022-10-26T16:47:35;16.77;71.04
72128;DHT22;60000;51.030;7.024;2022-10-26T16:50:03;16.66;71.29
72128;DHT22;60000;51.030;7.024;2022-10-26T16:52:29;16.57;71.60
72128;DHT22;60000;51.030;7.024;2022-10-26T16:54:54;16.48;72.15
72128;DHT22;60000;51.030;7.024;2022-10-26T16:57:19;16.38;72.38
72128;DHT22;60000;51.030;7.024;2022-10-26T16:59:45;16.32;72.88
72128;DHT22;60000;51.030;7.024;2022-10-26T17:02:12;16.23;73.44
72128;DHT22;60000;51.030;7.024;2022-10-26T17:04:39;16.18;73.91
72128;DHT22;60000;51.030;7.024;2022-10-26T17:07:04;16.11;74.07
72128;DHT22;60000;51.030;7.024;2022-10-26T17:09:29;16.04;74.57
72128;DHT22;60000;51.030;7.024;2022-10-26T17:11:55;16.09;75.60